Terminal Aerodrome Forecast
Issued by NWS Jackson, MS

Home | Current Version | Previous Version | Text Only | Print | Product List | Glossary On
Versions: 1 2 3 4 5 6 7 8 9
703
FTUS44 KJAN 251724
TAFGLH
TAF
KGLH 251724Z 2518/2618 18016KT P6SM FEW250
     FM260100 17014G21KT P6SM FEW100
     FM260700 17017KT P6SM OVC019
     FM261200 18015G23KT 6SM HZ BR OVC015=

USA.gov is the U.S. government's official web portal to all federal, state and local government web resources and services.